sensor_id;sensor_type;location;lat;lon;timestamp;P1;durP1;ratioP1;P2;durP2;ratioP2
2362;SDS011;64265;51.664;7.626;2022-12-18T00:01:50;9.18;;;7.97;;
2362;SDS011;64265;51.664;7.626;2022-12-18T00:04:20;6.47;;;5.80;;
2362;SDS011;64265;51.664;7.626;2022-12-18T00:06:48;8.80;;;6.43;;
2362;SDS011;64265;51.664;7.626;2022-12-18T00:09:15;9.13;;;7.57;;
2362;SDS011;64265;51.664;7.626;2022-12-18T00:11:42;8.70;;;7.38;;
2362;SDS011;64265;51.664;7.626;2022-12-18T00:14:11;8.45;;;7.50;;
2362;SDS011;64265;51.664;7.626;2022-12-18T00:16:38;6.90;;;6.20;;
2362;SDS011;64265;51.664;7.626;2022-12-18T00:19:05;8.30;;;7.45;;
2362;SDS011;64265;51.664;7.626;2022-12-18T00:21:32;8.25;;;7.45;;
2362;SDS011;64265;51.664;7.626;2022-12-18T00:23:59;9.05;;;7.15;;
2362;SDS011;64265;51.664;7.626;2022-12-18T00:26:27;8.35;;;7.55;;
2362;SDS011;64265;51.664;7.626;2022-12-18T00:28:57;12.80;;;7.13;;
2362;SDS011;64265;51.664;7.626;2022-12-18T00:31:26;9.48;;;8.30;;
2362;SDS011;64265;51.664;7.626;2022-12-18T00:33:53;7.40;;;6.78;;
2362;SDS011;64265;51.664;7.626;2022-12-18T00:36:21;8.45;;;7.10;;
2362;SDS011;64265;51.664;7.626;2022-12-18T00:38:49;8.68;;;7.40;;
2362;SDS011;64265;51.664;7.626;2022-12-18T00:41:16;8.70;;;7.78;;
2362;SDS011;64265;51.664;7.626;2022-12-18T00:44:04;9.80;;;8.45;;
2362;SDS011;64265;51.664;7.626;2022-12-18T00:49:55;8.90;;;7.50;;
2362;SDS011;64265;51.664;7.626;2022-12-18T00:52:21;8.45;;;7.60;;
2362;SDS011;64265;51.664;7.626;2022-12-18T00:54:48;8.93;;;8.00;;
2362;SDS011;64265;51.664;7.626;2022-12-18T00:57:15;9.32;;;8.32;;
2362;SDS011;64265;51.664;7.626;2022-12-18T00:59:41;10.60;;;8.13;;
2362;SDS011;64265;51.664;7.626;2022-12-18T01:02:08;8.10;;;7.30;;
2362;SDS011;64265;51.664;7.626;2022-12-18T01:04:35;9.98;;;7.57;;
2362;SDS011;64265;51.664;7.626;2022-12-18T01:07:03;8.68;;;7.80;;
2362;SDS011;64265;51.664;7.626;2022-12-18T01:09:30;9.38;;;7.47;;
2362;SDS011;64265;51.664;7.626;2022-12-18T01:11:56;9.25;;;7.72;;
2362;SDS011;64265;51.664;7.626;2022-12-18T01:14:23;8.25;;;7.50;;
2362;SDS011;64265;51.664;7.626;2022-12-18T01:16:50;9.55;;;7.47;;
2362;SDS011;64265;51.664;7.626;2022-12-18T01:19:16;8.73;;;7.82;;
2362;SDS011;64265;51.664;7.626;2022-12-18T01:21:43;9.25;;;7.90;;
2362;SDS011;64265;51.664;7.626;2022-12-18T01:24:11;10.60;;;7.05;;
2362;SDS011;64265;51.664;7.626;2022-12-18T01:26:38;8.40;;;7.60;;
2362;SDS011;64265;51.664;7.626;2022-12-18T01:29:05;7.78;;;6.97;;
2362;SDS011;64265;51.664;7.626;2022-12-18T01:31:35;9.75;;;7.25;;
2362;SDS011;64265;51.664;7.626;2022-12-18T01:34:02;11.13;;;7.95;;
2362;SDS011;64265;51.664;7.626;2022-12-18T01:36:31;7.28;;;6.57;;
2362;SDS011;64265;51.664;7.626;2022-12-18T01:38:59;9.60;;;7.72;;
2362;SDS011;64265;51.664;7.626;2022-12-18T01:41:29;8.70;;;7.70;;
2362;SDS011;64265;51.664;7.626;2022-12-18T01:47:23;8.02;;;6.75;;
2362;SDS011;64265;51.664;7.626;2022-12-18T01:49:51;6.72;;;6.03;;
2362;SDS011;64265;51.664;7.626;2022-12-18T01:52:19;7.88;;;7.00;;
2362;SDS011;64265;51.664;7.626;2022-12-18T01:54:47;9.07;;;7.38;;
2362;SDS011;64265;51.664;7.626;2022-12-18T01:57:19;7.45;;;6.50;;
2362;SDS011;64265;51.664;7.626;2022-12-18T01:59:47;8.18;;;7.38;;
2362;SDS011;64265;51.664;7.626;2022-12-18T02:02:18;8.02;;;6.32;;
2362;SDS011;64265;51.664;7.626;2022-12-18T02:04:46;7.85;;;7.05;;
2362;SDS011;64265;51.664;7.626;2022-12-18T02:07:16;9.73;;;7.05;;
2362;SDS011;64265;51.664;7.626;2022-12-18T02:09:50;7.60;;;6.78;;
2362;SDS011;64265;51.664;7.626;2022-12-18T02:12:22;7.95;;;6.93;;
2362;SDS011;64265;51.664;7.626;2022-12-18T02:14:53;8.80;;;7.55;;
2362;SDS011;64265;51.664;7.626;2022-12-18T02:17:27;8.00;;;7.20;;
2362;SDS011;64265;51.664;7.626;2022-12-18T02:20:02;6.70;;;5.95;;
2362;SDS011;64265;51.664;7.626;2022-12-18T02:22:37;8.82;;;7.93;;
2362;SDS011;64265;51.664;7.626;2022-12-18T02:25:13;7.70;;;5.88;;
2362;SDS011;64265;51.664;7.626;2022-12-18T02:27:48;7.63;;;6.68;;
2362;SDS011;64265;51.664;7.626;2022-12-18T02:30:17;8.82;;;6.80;;
2362;SDS011;64265;51.664;7.626;2022-12-18T02:32:46;7.53;;;6.05;;
2362;SDS011;64265;51.664;7.626;2022-12-18T02:35:16;7.50;;;6.80;;
2362;SDS011;64265;51.664;7.626;2022-12-18T02:37:46;7.05;;;6.22;;
2362;SDS011;64265;51.664;7.626;2022-12-18T02:40:14;6.50;;;5.70;;
2362;SDS011;64265;51.664;7.626;2022-12-18T02:42:43;8.93;;;7.00;;
2362;SDS011;64265;51.664;7.626;2022-12-18T02:45:11;9.13;;;6.63;;
2362;SDS011;64265;51.664;7.626;2022-12-18T02:47:39;7.78;;;6.85;;
2362;SDS011;64265;51.664;7.626;2022-12-18T02:50:09;7.28;;;6.03;;
2362;SDS011;64265;51.664;7.626;2022-12-18T02:52:45;8.30;;;6.10;;
2362;SDS011;64265;51.664;7.626;2022-12-18T02:55:24;8.15;;;5.97;;
2362;SDS011;64265;51.664;7.626;2022-12-18T02:58:02;7.30;;;6.57;;
2362;SDS011;64265;51.664;7.626;2022-12-18T03:00:33;7.28;;;5.80;;
2362;SDS011;64265;51.664;7.626;2022-12-18T03:03:05;8.35;;;6.53;;
2362;SDS011;64265;51.664;7.626;2022-12-18T03:05:36;7.18;;;6.45;;
2362;SDS011;64265;51.664;7.626;2022-12-18T03:08:07;9.23;;;6.75;;
2362;SDS011;64265;51.664;7.626;2022-12-18T03:10:37;6.90;;;6.20;;
2362;SDS011;64265;51.664;7.626;2022-12-18T03:13:08;7.55;;;6.85;;
2362;SDS011;64265;51.664;7.626;2022-12-18T03:15:41;6.28;;;5.72;;
2362;SDS011;64265;51.664;7.626;2022-12-18T03:18:12;7.68;;;6.88;;
2362;SDS011;64265;51.664;7.626;2022-12-18T03:20:42;7.22;;;6.53;;
2362;SDS011;64265;51.664;7.626;2022-12-18T03:23:11;7.10;;;5.40;;
2362;SDS011;64265;51.664;7.626;2022-12-18T03:25:42;5.93;;;5.30;;
2362;SDS011;64265;51.664;7.626;2022-12-18T03:28:12;6.32;;;5.68;;
2362;SDS011;64265;51.664;7.626;2022-12-18T03:30:43;6.18;;;5.57;;
2362;SDS011;64265;51.664;7.626;2022-12-18T03:33:12;6.97;;;6.28;;
2362;SDS011;64265;51.664;7.626;2022-12-18T03:35:45;6.22;;;5.60;;
2362;SDS011;64265;51.664;7.626;2022-12-18T03:38:12;6.65;;;5.78;;
2362;SDS011;64265;51.664;7.626;2022-12-18T03:40:43;6.82;;;6.10;;
2362;SDS011;64265;51.664;7.626;2022-12-18T03:43:19;6.80;;;6.03;;
2362;SDS011;64265;51.664;7.626;2022-12-18T03:45:52;6.75;;;6.15;;
2362;SDS011;64265;51.664;7.626;2022-12-18T03:48:26;8.68;;;6.75;;
2362;SDS011;64265;51.664;7.626;2022-12-18T03:50:58;7.80;;;6.05;;
2362;SDS011;64265;51.664;7.626;2022-12-18T03:53:30;6.30;;;5.70;;
2362;SDS011;64265;51.664;7.626;2022-12-18T03:56:01;5.82;;;5.32;;
2362;SDS011;64265;51.664;7.626;2022-12-18T03:58:29;7.15;;;5.55;;
2362;SDS011;64265;51.664;7.626;2022-12-18T04:01:01;7.93;;;6.75;;
2362;SDS011;64265;51.664;7.626;2022-12-18T04:03:31;6.75;;;6.13;;
2362;SDS011;64265;51.664;7.626;2022-12-18T04:05:58;6.07;;;5.55;;
2362;SDS011;64265;51.664;7.626;2022-12-18T04:08:26;8.35;;;6.22;;
2362;SDS011;64265;51.664;7.626;2022-12-18T04:10:53;7.05;;;6.35;;
2362;SDS011;64265;51.664;7.626;2022-12-18T04:13:23;7.28;;;6.00;;
2362;SDS011;64265;51.664;7.626;2022-12-18T04:15:53;7.50;;;6.20;;
2362;SDS011;64265;51.664;7.626;2022-12-18T04:18:21;6.85;;;5.75;;
2362;SDS011;64265;51.664;7.626;2022-12-18T04:20:48;6.38;;;5.75;;
2362;SDS011;64265;51.664;7.626;2022-12-18T04:23:14;5.60;;;5.10;;
2362;SDS011;64265;51.664;7.626;2022-12-18T04:25:41;6.90;;;6.05;;
2362;SDS011;64265;51.664;7.626;2022-12-18T04:28:08;5.95;;;5.35;;
2362;SDS011;64265;51.664;7.626;2022-12-18T04:30:35;7.38;;;6.68;;
2362;SDS011;64265;51.664;7.626;2022-12-18T04:33:01;6.60;;;5.88;;
2362;SDS011;64265;51.664;7.626;2022-12-18T04:35:29;6.63;;;6.07;;
2362;SDS011;64265;51.664;7.626;2022-12-18T04:37:56;6.65;;;5.95;;
2362;SDS011;64265;51.664;7.626;2022-12-18T04:40:23;5.85;;;5.25;;
2362;SDS011;64265;51.664;7.626;2022-12-18T04:42:49;6.00;;;5.28;;
2362;SDS011;64265;51.664;7.626;2022-12-18T04:45:16;5.95;;;5.45;;
2362;SDS011;64265;51.664;7.626;2022-12-18T04:47:43;6.50;;;5.90;;
2362;SDS011;64265;51.664;7.626;2022-12-18T04:50:09;6.28;;;5.47;;
2362;SDS011;64265;51.664;7.626;2022-12-18T04:52:37;6.70;;;5.78;;
2362;SDS011;64265;51.664;7.626;2022-12-18T04:55:04;7.43;;;6.65;;
2362;SDS011;64265;51.664;7.626;2022-12-18T04:57:31;7.10;;;6.40;;
2362;SDS011;64265;51.664;7.626;2022-12-18T04:59:58;6.90;;;5.90;;
2362;SDS011;64265;51.664;7.626;2022-12-18T05:02:25;5.70;;;5.00;;
2362;SDS011;64265;51.664;7.626;2022-12-18T05:04:51;6.40;;;5.80;;
2362;SDS011;64265;51.664;7.626;2022-12-18T05:07:18;7.85;;;6.05;;
2362;SDS011;64265;51.664;7.626;2022-12-18T05:09:46;6.80;;;6.18;;
2362;SDS011;64265;51.664;7.626;2022-12-18T05:12:13;7.05;;;5.50;;
2362;SDS011;64265;51.664;7.626;2022-12-18T05:14:39;6.35;;;5.85;;
2362;SDS011;64265;51.664;7.626;2022-12-18T05:17:06;6.75;;;5.93;;
2362;SDS011;64265;51.664;7.626;2022-12-18T05:19:33;6.20;;;5.70;;
2362;SDS011;64265;51.664;7.626;2022-12-18T05:21:59;6.32;;;5.53;;
2362;SDS011;64265;51.664;7.626;2022-12-18T05:24:26;6.93;;;6.22;;
2362;SDS011;64265;51.664;7.626;2022-12-18T05:26:54;7.25;;;6.18;;
2362;SDS011;64265;51.664;7.626;2022-12-18T05:29:21;6.93;;;6.32;;
2362;SDS011;64265;51.664;7.626;2022-12-18T05:31:48;5.50;;;5.05;;
2362;SDS011;64265;51.664;7.626;2022-12-18T05:34:15;5.97;;;5.40;;
2362;SDS011;64265;51.664;7.626;2022-12-18T05:36:41;7.93;;;6.00;;
2362;SDS011;64265;51.664;7.626;2022-12-18T05:39:08;5.88;;;5.38;;
2362;SDS011;64265;51.664;7.626;2022-12-18T05:41:35;6.90;;;6.20;;
2362;SDS011;64265;51.664;7.626;2022-12-18T05:44:03;5.78;;;5.28;;
2362;SDS011;64265;51.664;7.626;2022-12-18T05:46:30;5.95;;;5.45;;
2362;SDS011;64265;51.664;7.626;2022-12-18T05:48:58;6.28;;;5.72;;
2362;SDS011;64265;51.664;7.626;2022-12-18T05:51:26;5.90;;;5.35;;
2362;SDS011;64265;51.664;7.626;2022-12-18T05:53:53;7.53;;;6.60;;
2362;SDS011;64265;51.664;7.626;2022-12-18T05:56:20;6.43;;;5.82;;
2362;SDS011;64265;51.664;7.626;2022-12-18T05:58:50;6.40;;;5.30;;
2362;SDS011;64265;51.664;7.626;2022-12-18T06:01:20;6.20;;;5.60;;
2362;SDS011;64265;51.664;7.626;2022-12-18T06:03:48;6.85;;;6.25;;
2362;SDS011;64265;51.664;7.626;2022-12-18T06:06:16;5.50;;;5.03;;
2362;SDS011;64265;51.664;7.626;2022-12-18T06:08:44;5.10;;;4.70;;
2362;SDS011;64265;51.664;7.626;2022-12-18T06:11:11;7.30;;;6.60;;
2362;SDS011;64265;51.664;7.626;2022-12-18T06:13:38;6.53;;;5.55;;
2362;SDS011;64265;51.664;7.626;2022-12-18T06:16:05;4.72;;;4.32;;
2362;SDS011;64265;51.664;7.626;2022-12-18T06:18:34;6.78;;;6.13;;
2362;SDS011;64265;51.664;7.626;2022-12-18T06:21:01;4.95;;;4.55;;
2362;SDS011;64265;51.664;7.626;2022-12-18T06:23:27;5.75;;;5.10;;
2362;SDS011;64265;51.664;7.626;2022-12-18T06:25:54;5.95;;;5.40;;
2362;SDS011;64265;51.664;7.626;2022-12-18T06:28:21;5.20;;;4.70;;
2362;SDS011;64265;51.664;7.626;2022-12-18T06:30:48;6.57;;;5.75;;
2362;SDS011;64265;51.664;7.626;2022-12-18T06:33:15;5.80;;;5.20;;
2362;SDS011;64265;51.664;7.626;2022-12-18T06:35:43;6.15;;;5.55;;
2362;SDS011;64265;51.664;7.626;2022-12-18T06:38:10;6.82;;;6.13;;
2362;SDS011;64265;51.664;7.626;2022-12-18T06:40:37;4.97;;;4.47;;
2362;SDS011;64265;51.664;7.626;2022-12-18T06:43:04;5.80;;;5.25;;
2362;SDS011;64265;51.664;7.626;2022-12-18T06:45:31;5.85;;;5.35;;
2362;SDS011;64265;51.664;7.626;2022-12-18T06:47:58;5.50;;;4.88;;
2362;SDS011;64265;51.664;7.626;2022-12-18T06:50:25;5.93;;;5.43;;
2362;SDS011;64265;51.664;7.626;2022-12-18T06:52:53;5.57;;;5.13;;
2362;SDS011;64265;51.664;7.626;2022-12-18T06:55:19;6.72;;;4.43;;
2362;SDS011;64265;51.664;7.626;2022-12-18T06:57:46;5.07;;;4.65;;
2362;SDS011;64265;51.664;7.626;2022-12-18T07:00:13;5.57;;;5.00;;
2362;SDS011;64265;51.664;7.626;2022-12-18T07:02:40;5.22;;;4.70;;
2362;SDS011;64265;51.664;7.626;2022-12-18T07:05:07;5.05;;;4.65;;
2362;SDS011;64265;51.664;7.626;2022-12-18T07:07:33;5.25;;;4.75;;
2362;SDS011;64265;51.664;7.626;2022-12-18T07:10:02;4.70;;;4.30;;
2362;SDS011;64265;51.664;7.626;2022-12-18T07:12:29;6.45;;;5.30;;
2362;SDS011;64265;51.664;7.626;2022-12-18T07:14:55;5.38;;;4.72;;
2362;SDS011;64265;51.664;7.626;2022-12-18T07:17:22;5.20;;;4.70;;
2362;SDS011;64265;51.664;7.626;2022-12-18T07:19:49;6.95;;;5.63;;
2362;SDS011;64265;51.664;7.626;2022-12-18T07:22:15;5.60;;;5.10;;
2362;SDS011;64265;51.664;7.626;2022-12-18T07:24:42;4.97;;;4.35;;
2362;SDS011;64265;51.664;7.626;2022-12-18T07:27:10;5.47;;;4.97;;
2362;SDS011;64265;51.664;7.626;2022-12-18T07:29:36;5.95;;;5.45;;
2362;SDS011;64265;51.664;7.626;2022-12-18T07:32:03;4.93;;;4.53;;
2362;SDS011;64265;51.664;7.626;2022-12-18T07:34:31;6.00;;;5.50;;
2362;SDS011;64265;51.664;7.626;2022-12-18T07:36:58;5.35;;;4.88;;
2362;SDS011;64265;51.664;7.626;2022-12-18T07:39:25;5.78;;;5.13;;
2362;SDS011;64265;51.664;7.626;2022-12-18T07:41:51;6.43;;;5.82;;
2362;SDS011;64265;51.664;7.626;2022-12-18T07:44:33;6.43;;;5.85;;
2362;SDS011;64265;51.664;7.626;2022-12-18T07:47:00;5.78;;;5.28;;
2362;SDS011;64265;51.664;7.626;2022-12-18T07:49:27;7.43;;;6.38;;
2362;SDS011;64265;51.664;7.626;2022-12-18T07:51:54;6.50;;;5.90;;
2362;SDS011;64265;51.664;7.626;2022-12-18T07:54:21;7.25;;;6.55;;
2362;SDS011;64265;51.664;7.626;2022-12-18T07:56:47;7.47;;;6.78;;
2362;SDS011;64265;51.664;7.626;2022-12-18T07:59:14;6.53;;;5.93;;
2362;SDS011;64265;51.664;7.626;2022-12-18T08:01:42;7.10;;;6.50;;
2362;SDS011;64265;51.664;7.626;2022-12-18T08:04:09;5.93;;;5.32;;
2362;SDS011;64265;51.664;7.626;2022-12-18T08:06:36;5.95;;;5.35;;
2362;SDS011;64265;51.664;7.626;2022-12-18T08:09:02;7.93;;;6.22;;
2362;SDS011;64265;51.664;7.626;2022-12-18T08:11:29;6.22;;;5.63;;
2362;SDS011;64265;51.664;7.626;2022-12-18T08:13:56;6.38;;;5.78;;
2362;SDS011;64265;51.664;7.626;2022-12-18T08:16:23;6.80;;;6.15;;
2362;SDS011;64265;51.664;7.626;2022-12-18T08:18:52;6.07;;;5.57;;
2362;SDS011;64265;51.664;7.626;2022-12-18T08:21:20;7.05;;;6.30;;
2362;SDS011;64265;51.664;7.626;2022-12-18T08:23:48;6.43;;;5.93;;
2362;SDS011;64265;51.664;7.626;2022-12-18T08:26:15;6.10;;;5.60;;
2362;SDS011;64265;51.664;7.626;2022-12-18T08:28:43;5.28;;;4.85;;
2362;SDS011;64265;51.664;7.626;2022-12-18T08:31:10;6.78;;;6.18;;
2362;SDS011;64265;51.664;7.626;2022-12-18T08:33:37;5.90;;;5.40;;
2362;SDS011;64265;51.664;7.626;2022-12-18T08:36:06;6.85;;;6.13;;
2362;SDS011;64265;51.664;7.626;2022-12-18T08:38:34;5.53;;;5.07;;
2362;SDS011;64265;51.664;7.626;2022-12-18T08:41:01;6.40;;;5.55;;
2362;SDS011;64265;51.664;7.626;2022-12-18T08:43:29;6.43;;;5.30;;
2362;SDS011;64265;51.664;7.626;2022-12-18T08:46:13;5.82;;;5.22;;
2362;SDS011;64265;51.664;7.626;2022-12-18T08:48:41;6.50;;;6.00;;
2362;SDS011;64265;51.664;7.626;2022-12-18T08:51:09;6.35;;;5.75;;
2362;SDS011;64265;51.664;7.626;2022-12-18T08:53:35;7.68;;;6.38;;
2362;SDS011;64265;51.664;7.626;2022-12-18T08:56:02;5.97;;;5.40;;
2362;SDS011;64265;51.664;7.626;2022-12-18T08:58:30;6.47;;;5.97;;
2362;SDS011;64265;51.664;7.626;2022-12-18T09:00:59;5.18;;;4.68;;
2362;SDS011;64265;51.664;7.626;2022-12-18T09:03:27;5.57;;;5.18;;
2362;SDS011;64265;51.664;7.626;2022-12-18T09:05:53;5.18;;;4.68;;
2362;SDS011;64265;51.664;7.626;2022-12-18T09:08:21;5.45;;;4.95;;
2362;SDS011;64265;51.664;7.626;2022-12-18T09:10:49;5.68;;;5.07;;
2362;SDS011;64265;51.664;7.626;2022-12-18T09:13:16;6.90;;;5.63;;
2362;SDS011;64265;51.664;7.626;2022-12-18T09:15:44;6.25;;;5.38;;
2362;SDS011;64265;51.664;7.626;2022-12-18T09:18:12;8.43;;;4.78;;
2362;SDS011;64265;51.664;7.626;2022-12-18T09:20:40;9.95;;;5.28;;
2362;SDS011;64265;51.664;7.626;2022-12-18T09:23:07;4.93;;;4.43;;
2362;SDS011;64265;51.664;7.626;2022-12-18T09:25:35;6.30;;;5.43;;
2362;SDS011;64265;51.664;7.626;2022-12-18T09:28:03;5.95;;;5.32;;
2362;SDS011;64265;51.664;7.626;2022-12-18T09:30:31;5.93;;;5.32;;
2362;SDS011;64265;51.664;7.626;2022-12-18T09:32:59;5.90;;;4.97;;
2362;SDS011;64265;51.664;7.626;2022-12-18T09:35:26;5.07;;;4.68;;
2362;SDS011;64265;51.664;7.626;2022-12-18T09:37:53;5.55;;;5.05;;
2362;SDS011;64265;51.664;7.626;2022-12-18T09:40:21;5.60;;;5.10;;
2362;SDS011;64265;51.664;7.626;2022-12-18T09:42:52;5.03;;;4.55;;
2362;SDS011;64265;51.664;7.626;2022-12-18T09:45:23;5.20;;;4.70;;
2362;SDS011;64265;51.664;7.626;2022-12-18T09:47:50;5.68;;;5.10;;
2362;SDS011;64265;51.664;7.626;2022-12-18T09:50:22;5.13;;;4.53;;
2362;SDS011;64265;51.664;7.626;2022-12-18T09:52:53;6.22;;;5.72;;
2362;SDS011;64265;51.664;7.626;2022-12-18T09:55:25;5.97;;;5.28;;
2362;SDS011;64265;51.664;7.626;2022-12-18T09:58:00;5.47;;;4.50;;
2362;SDS011;64265;51.664;7.626;2022-12-18T10:00:31;4.80;;;4.40;;
2362;SDS011;64265;51.664;7.626;2022-12-18T10:03:00;5.28;;;4.88;;
2362;SDS011;64265;51.664;7.626;2022-12-18T10:05:33;6.07;;;5.50;;
2362;SDS011;64265;51.664;7.626;2022-12-18T10:08:08;7.18;;;6.57;;
2362;SDS011;64265;51.664;7.626;2022-12-18T10:10:40;5.30;;;4.90;;
2362;SDS011;64265;51.664;7.626;2022-12-18T10:13:15;5.75;;;4.55;;
2362;SDS011;64265;51.664;7.626;2022-12-18T10:15:53;4.85;;;4.45;;
2362;SDS011;64265;51.664;7.626;2022-12-18T10:18:29;5.38;;;4.88;;
2362;SDS011;64265;51.664;7.626;2022-12-18T10:21:12;7.10;;;5.32;;
2362;SDS011;64265;51.664;7.626;2022-12-18T10:23:45;5.32;;;4.82;;
2362;SDS011;64265;51.664;7.626;2022-12-18T10:26:21;4.65;;;4.25;;
2362;SDS011;64265;51.664;7.626;2022-12-18T10:28:49;5.13;;;4.70;;
2362;SDS011;64265;51.664;7.626;2022-12-18T10:31:20;5.32;;;4.82;;
2362;SDS011;64265;51.664;7.626;2022-12-18T10:33:48;5.50;;;5.00;;
2362;SDS011;64265;51.664;7.626;2022-12-18T10:36:14;4.68;;;4.28;;
2362;SDS011;64265;51.664;7.626;2022-12-18T10:38:42;4.90;;;4.50;;
2362;SDS011;64265;51.664;7.626;2022-12-18T10:41:22;5.13;;;4.53;;
2362;SDS011;64265;51.664;7.626;2022-12-18T10:44:09;5.50;;;5.10;;
2362;SDS011;64265;51.664;7.626;2022-12-18T10:46:38;4.95;;;4.53;;
2362;SDS011;64265;51.664;7.626;2022-12-18T10:49:05;4.82;;;4.40;;
2362;SDS011;64265;51.664;7.626;2022-12-18T10:51:44;6.05;;;4.80;;
2362;SDS011;64265;51.664;7.626;2022-12-18T10:54:13;8.98;;;4.97;;
2362;SDS011;64265;51.664;7.626;2022-12-18T10:56:41;8.68;;;4.57;;
2362;SDS011;64265;51.664;7.626;2022-12-18T10:59:10;9.70;;;5.53;;
2362;SDS011;64265;51.664;7.626;2022-12-18T11:01:46;6.35;;;4.90;;
2362;SDS011;64265;51.664;7.626;2022-12-18T11:04:16;8.40;;;5.55;;
2362;SDS011;64265;51.664;7.626;2022-12-18T11:06:52;5.50;;;5.00;;
2362;SDS011;64265;51.664;7.626;2022-12-18T11:09:22;5.93;;;5.03;;
2362;SDS011;64265;51.664;7.626;2022-12-18T11:11:49;10.68;;;5.13;;
2362;SDS011;64265;51.664;7.626;2022-12-18T11:14:20;6.18;;;4.82;;
2362;SDS011;64265;51.664;7.626;2022-12-18T11:16:49;6.20;;;5.03;;
2362;SDS011;64265;51.664;7.626;2022-12-18T11:19:20;6.72;;;4.45;;
2362;SDS011;64265;51.664;7.626;2022-12-18T11:21:54;6.10;;;4.85;;
2362;SDS011;64265;51.664;7.626;2022-12-18T11:24:24;7.63;;;5.25;;
2362;SDS011;64265;51.664;7.626;2022-12-18T11:26:54;5.60;;;5.10;;
2362;SDS011;64265;51.664;7.626;2022-12-18T11:29:24;5.45;;;4.82;;
2362;SDS011;64265;51.664;7.626;2022-12-18T11:34:48;5.30;;;4.80;;
2362;SDS011;64265;51.664;7.626;2022-12-18T11:37:17;7.18;;;4.97;;
2362;SDS011;64265;51.664;7.626;2022-12-18T11:39:45;9.52;;;4.40;;
2362;SDS011;64265;51.664;7.626;2022-12-18T11:42:17;5.93;;;5.45;;
2362;SDS011;64265;51.664;7.626;2022-12-18T11:44:52;9.63;;;4.07;;
2362;SDS011;64265;51.664;7.626;2022-12-18T11:47:25;5.05;;;4.55;;
2362;SDS011;64265;51.664;7.626;2022-12-18T11:49:58;3.95;;;3.58;;
2362;SDS011;64265;51.664;7.626;2022-12-18T11:52:27;5.50;;;4.80;;
2362;SDS011;64265;51.664;7.626;2022-12-18T11:54:58;5.88;;;4.93;;
2362;SDS011;64265;51.664;7.626;2022-12-18T11:57:30;4.38;;;3.88;;
2362;SDS011;64265;51.664;7.626;2022-12-18T12:00:11;4.55;;;4.15;;
2362;SDS011;64265;51.664;7.626;2022-12-18T12:02:50;5.30;;;4.78;;
2362;SDS011;64265;51.664;7.626;2022-12-18T12:05:47;5.45;;;4.10;;
2362;SDS011;64265;51.664;7.626;2022-12-18T12:08:19;4.00;;;3.70;;
2362;SDS011;64265;51.664;7.626;2022-12-18T12:10:56;5.38;;;4.90;;
2362;SDS011;64265;51.664;7.626;2022-12-18T12:13:40;7.13;;;4.43;;
2362;SDS011;64265;51.664;7.626;2022-12-18T12:16:16;5.82;;;5.32;;
2362;SDS011;64265;51.664;7.626;2022-12-18T12:18:49;3.80;;;3.40;;
2362;SDS011;64265;51.664;7.626;2022-12-18T12:21:28;4.93;;;4.43;;
2362;SDS011;64265;51.664;7.626;2022-12-18T12:24:03;6.40;;;4.03;;
2362;SDS011;64265;51.664;7.626;2022-12-18T12:26:45;4.22;;;3.83;;
2362;SDS011;64265;51.664;7.626;2022-12-18T12:29:25;7.07;;;3.60;;
2362;SDS011;64265;51.664;7.626;2022-12-18T12:32:07;5.20;;;3.70;;
2362;SDS011;64265;51.664;7.626;2022-12-18T12:34:46;5.85;;;3.80;;
2362;SDS011;64265;51.664;7.626;2022-12-18T12:37:24;7.55;;;3.88;;
2362;SDS011;64265;51.664;7.626;2022-12-18T12:40:02;5.18;;;4.68;;
2362;SDS011;64265;51.664;7.626;2022-12-18T12:42:30;5.70;;;4.05;;
2362;SDS011;64265;51.664;7.626;2022-12-18T12:45:21;8.35;;;4.20;;
2362;SDS011;64265;51.664;7.626;2022-12-18T12:47:53;5.15;;;3.70;;
2362;SDS011;64265;51.664;7.626;2022-12-18T12:50:22;4.15;;;3.53;;
2362;SDS011;64265;51.664;7.626;2022-12-18T12:52:50;5.57;;;4.60;;
2362;SDS011;64265;51.664;7.626;2022-12-18T12:55:20;4.10;;;3.38;;
2362;SDS011;64265;51.664;7.626;2022-12-18T12:57:51;6.80;;;4.70;;
2362;SDS011;64265;51.664;7.626;2022-12-18T13:00:26;7.25;;;4.38;;
2362;SDS011;64265;51.664;7.626;2022-12-18T13:03:02;4.88;;;4.25;;
2362;SDS011;64265;51.664;7.626;2022-12-18T13:05:34;4.68;;;3.10;;
2362;SDS011;64265;51.664;7.626;2022-12-18T13:08:10;4.90;;;3.90;;
2362;SDS011;64265;51.664;7.626;2022-12-18T13:10:38;3.97;;;3.58;;
2362;SDS011;64265;51.664;7.626;2022-12-18T13:13:07;5.32;;;3.95;;
2362;SDS011;64265;51.664;7.626;2022-12-18T13:15:38;3.78;;;2.75;;
2362;SDS011;64265;51.664;7.626;2022-12-18T13:18:19;4.20;;;3.80;;
2362;SDS011;64265;51.664;7.626;2022-12-18T13:20:48;5.53;;;3.55;;
2362;SDS011;64265;51.664;7.626;2022-12-18T13:23:30;3.65;;;3.20;;
2362;SDS011;64265;51.664;7.626;2022-12-18T13:25:59;4.43;;;3.20;;
2362;SDS011;64265;51.664;7.626;2022-12-18T13:28:51;5.20;;;4.32;;
2362;SDS011;64265;51.664;7.626;2022-12-18T13:34:35;5.15;;;3.63;;
2362;SDS011;64265;51.664;7.626;2022-12-18T13:43:30;4.18;;;3.65;;
2362;SDS011;64265;51.664;7.626;2022-12-18T13:46:02;7.85;;;3.78;;
2362;SDS011;64265;51.664;7.626;2022-12-18T13:48:33;4.45;;;3.65;;
2362;SDS011;64265;51.664;7.626;2022-12-18T13:51:03;3.90;;;3.60;;
2362;SDS011;64265;51.664;7.626;2022-12-18T13:53:33;4.40;;;3.40;;
2362;SDS011;64265;51.664;7.626;2022-12-18T13:56:04;4.18;;;3.78;;
2362;SDS011;64265;51.664;7.626;2022-12-18T13:58:31;5.63;;;3.50;;
2362;SDS011;64265;51.664;7.626;2022-12-18T14:00:58;6.15;;;5.55;;
2362;SDS011;64265;51.664;7.626;2022-12-18T14:03:28;20.15;;;18.48;;
2362;SDS011;64265;51.664;7.626;2022-12-18T14:05:58;23.60;;;22.05;;
2362;SDS011;64265;51.664;7.626;2022-12-18T14:08:30;12.30;;;11.30;;
2362;SDS011;64265;51.664;7.626;2022-12-18T14:11:01;8.35;;;7.53;;
2362;SDS011;64265;51.664;7.626;2022-12-18T14:13:31;8.70;;;7.82;;
2362;SDS011;64265;51.664;7.626;2022-12-18T14:16:01;12.68;;;7.78;;
2362;SDS011;64265;51.664;7.626;2022-12-18T14:18:33;9.98;;;9.02;;
2362;SDS011;64265;51.664;7.626;2022-12-18T14:21:13;7.85;;;7.03;;
2362;SDS011;64265;51.664;7.626;2022-12-18T14:23:47;8.70;;;6.88;;
2362;SDS011;64265;51.664;7.626;2022-12-18T14:26:21;8.40;;;7.20;;
2362;SDS011;64265;51.664;7.626;2022-12-18T14:28:50;9.52;;;8.52;;
2362;SDS011;64265;51.664;7.626;2022-12-18T14:31:19;12.75;;;7.65;;
2362;SDS011;64265;51.664;7.626;2022-12-18T14:33:47;7.50;;;6.80;;
2362;SDS011;64265;51.664;7.626;2022-12-18T14:36:15;8.68;;;7.00;;
2362;SDS011;64265;51.664;7.626;2022-12-18T14:38:43;19.33;;;16.38;;
2362;SDS011;64265;51.664;7.626;2022-12-18T14:41:16;16.67;;;14.27;;
2362;SDS011;64265;51.664;7.626;2022-12-18T14:43:44;17.50;;;11.60;;
2362;SDS011;64265;51.664;7.626;2022-12-18T14:46:25;17.85;;;16.15;;
2362;SDS011;64265;51.664;7.626;2022-12-18T14:48:56;17.85;;;15.20;;
2362;SDS011;64265;51.664;7.626;2022-12-18T14:51:23;20.27;;;16.33;;
2362;SDS011;64265;51.664;7.626;2022-12-18T14:53:53;18.05;;;16.17;;
2362;SDS011;64265;51.664;7.626;2022-12-18T14:56:21;18.50;;;16.60;;
2362;SDS011;64265;51.664;7.626;2022-12-18T14:58:50;20.42;;;18.00;;
2362;SDS011;64265;51.664;7.626;2022-12-18T15:01:20;21.60;;;19.08;;
2362;SDS011;64265;51.664;7.626;2022-12-18T15:03:50;25.50;;;23.00;;
2362;SDS011;64265;51.664;7.626;2022-12-18T15:06:23;24.10;;;21.63;;
2362;SDS011;64265;51.664;7.626;2022-12-18T15:08:56;23.70;;;21.30;;
2362;SDS011;64265;51.664;7.626;2022-12-18T15:11:27;20.55;;;18.45;;
2362;SDS011;64265;51.664;7.626;2022-12-18T15:16:50;18.23;;;16.35;;
2362;SDS011;64265;51.664;7.626;2022-12-18T15:19:18;23.60;;;19.15;;
2362;SDS011;64265;51.664;7.626;2022-12-18T15:21:47;19.00;;;17.10;;
2362;SDS011;64265;51.664;7.626;2022-12-18T15:24:16;21.50;;;19.35;;
2362;SDS011;64265;51.664;7.626;2022-12-18T15:26:46;23.60;;;21.40;;
2362;SDS011;64265;51.664;7.626;2022-12-18T15:29:17;22.25;;;19.85;;
2362;SDS011;64265;51.664;7.626;2022-12-18T15:31:57;22.42;;;19.88;;
2362;SDS011;64265;51.664;7.626;2022-12-18T15:34:24;24.48;;;21.02;;
2362;SDS011;64265;51.664;7.626;2022-12-18T15:36:53;23.38;;;21.05;;
2362;SDS011;64265;51.664;7.626;2022-12-18T15:39:19;26.50;;;23.85;;